Nearby METAR Reports

 

KEWR - Newark, New Jersey, USA
Distance from station: NW 15mi, 25km
Updated: Tue, 24-Apr-2018 5:51am EDT
Mostly cloudy
Mostly cloudy
 Wind from calm
Wind: Calm
Temperature: 48°F , 9°C
Dew Point: 43°F , 6°C
Humidity: 82%
Barometer: 30.40 inHg , 1029.5 hPa
Clouds: Mostly cloudy
Visibility: 10 miles , 16 km
Cloud details: Mostly cloudy 25000 ft
2018/04/24 09:51 KEWR 240951Z 00000KT 10SM BKN250 09/06 A3040 RMK AO2 SLP295 T00890061
KJFK - Nyc/Jfk Arpt, New York, USA
Distance from station: NE 15mi, 25km
Updated: Tue, 24-Apr-2018 5:51am EDT
Mostly cloudy
Mostly cloudy
 Wind from E
Wind: E 3 mph , 6 km/h
Temperature: 43°F , 6°C
Dew Point: 43°F , 6°C
Humidity: 100%
Barometer: 30.42 inHg , 1030.1 hPa
Clouds: Mostly cloudy
Visibility: 10 miles , 16 km
Cloud details: Mostly cloudy 25000 ft
2018/04/24 09:51 KJFK 240951Z 08003KT 10SM BKN250 06/06 A3042 RMK AO2 SLP300 T00560056
 
KLDJ - Linden, New Jersey, USA
Distance from station: WNW 15mi, 25km
Updated: Tue, 24-Apr-2018 5:55am EDT
Clear
Clear
 Wind from calm
Wind: Calm
Temperature: 43°F , 6°C
Dew Point: 39°F , 4°C
Humidity: 87%
Barometer: 30.41 inHg , 1029.8 hPa
Clouds: Clear
Visibility: 10 miles , 16 km
2018/04/24 09:55 KLDJ 240955Z AUTO 00000KT 10SM CLR 06/04 A3041 RMK AO2 T00600043
KNYC - Nyc/Central Park, New York, USA
Distance from station: N 20mi, 32km
Updated: Tue, 24-Apr-2018 5:51am EDT
Clear
Clear
 Wind from calm
Wind: Calm
Temperature: 46°F , 8°C
Dew Point: 43°F , 6°C
Humidity: 87%
Barometer: 30.43 inHg , 1030.5 hPa
Clouds: Clear
Visibility: 8 miles , 13 km
2018/04/24 09:51 KNYC 240951Z AUTO 00000KT 8SM CLR 08/06 A3043 RMK AO2 SLP295 T00830056
 
KLGA - Nyc/La Guardia, New York, USA
Distance from station: NNE 21mi, 33km
Updated: Tue, 24-Apr-2018 5:51am EDT
Partly cloudy
Partly cloudy
 Wind from varies
Wind: varies 5 mph , 7 km/h
Temperature: 46°F , 8°C
Wind Chill: 44°F , 7°C
Dew Point: 43°F , 6°C
Humidity: 87%
Barometer: 30.40 inHg , 1029.5 hPa
Clouds: Partly cloudy
Visibility: 10 miles , 16 km
Cloud details: Partly cloudy 25000 ft
2018/04/24 09:51 KLGA 240951Z VRB04KT 10SM SCT250 08/06 A3040 RMK AO2 SLP294 T00830056
KBLM - Belmar/Farmdale, New Jersey, USA
Distance from station: SSW 24mi, 38km
Updated: Tue, 24-Apr-2018 5:56am EDT
Clear
Clear
 Wind from E
Wind: E 5 mph , 7 km/h
Temperature: 39°F , 4°C
Wind Chill: 35°F , 2°C
Dew Point: 39°F , 4°C
Humidity: 100%
Barometer: 30.40 inHg , 1029.5 hPa
Clouds: Clear
Visibility: 10 miles , 16 km
2018/04/24 09:56 KBLM 240956Z AUTO 09004KT 10SM CLR 04/04 A3040 RMK AO2 SLP299 T00440039
 
KTEB - Teterboro, New Jersey, USA
Distance from station: N 25mi, 41km
Updated: Tue, 24-Apr-2018 5:51am EDT
Clear
Clear
 Wind from calm
Wind: Calm
Temperature: 43°F , 6°C
Dew Point: 37°F , 3°C
Humidity: 81%
Barometer: 30.40 inHg , 1029.5 hPa
Clouds: Clear
Visibility: 10 miles , 16 km
2018/04/24 09:51 KTEB 240951Z 00000KT 10SM CLR 06/03 A3040 RMK AO2 SLP293 T00560028
KMMU - Morristown Muni, New Jersey, USA
Distance from station: NW 29mi, 47km
Updated: Tue, 24-Apr-2018 5:55am EDT
Clear
Clear
 Wind from calm
Wind: Calm
Temperature: 34°F , 1°C
Dew Point: 34°F , 1°C
Humidity: 100%
Barometer: 30.41 inHg , 1029.8 hPa
Clouds: Clear
Visibility: 7 miles , 11 km
2018/04/24 09:55 KMMU 240955Z AUTO 00000KT 7SM CLR 01/01 A3041 RMK AO2
 
KCDW - Caldwell, New Jersey, USA
Distance from station: NNW 30mi, 49km
Updated: Tue, 24-Apr-2018 5:53am EDT
Clear
Clear
 Wind from calm
Wind: Calm
Temperature: 37°F , 3°C
Dew Point: 34°F , 1°C
Humidity: 87%
Barometer: 30.41 inHg , 1029.8 hPa
Clouds: Clear
Visibility: 10 miles , 16 km
2018/04/24 09:53 KCDW 240953Z AUTO 00000KT 10SM CLR 03/01 A3041 RMK AO2 SLP305 T00280011
KFRG - Farmingdale, New York, USA
Distance from station: ENE 35mi, 56km
Updated: Tue, 24-Apr-2018 6:13am EDT
Mist, Clear
Mist, Clear
 Wind from calm
Wind: Calm
Temperature: 37°F , 3°C
Dew Point: 36°F , 2°C
Humidity: 93%
Barometer: 30.42 inHg , 1030.1 hPa
Summary: Mist
Clouds: Clear
Visibility: 3 miles , 5 km
2018/04/24 10:13 KFRG 241013Z AUTO 00000KT 3SM BR CLR 03/02 A3042 RMK AO2 T00280022
 
KSMQ - Somerville, New Jersey, USA
Distance from station: WNW 36mi, 58km
Updated: Tue, 24-Apr-2018 5:53am EDT
Clear
Clear
 Wind from NNW
Wind: NNW 3 mph , 6 km/h
Temperature: 34°F , 1°C
Dew Point: 32°F , 0°C
Humidity: 93%
Barometer: 30.39 inHg , 1029.1 hPa
Clouds: Clear
Visibility: 10 miles , 16 km
2018/04/24 09:53 KSMQ 240953Z AUTO 34003KT 10SM CLR 01/00 A3039 RMK AO2 SLP292 T00060000
KNEL - Lakehurst Nas, New Jersey, USA
Distance from station: SSW 38mi, 61km
Updated: Tue, 24-Apr-2018 6:00am EDT
Clear
Clear
 Wind from calm
Wind: Calm
Temperature: 30°F , -1°C
Dew Point: 28°F , -2°C
Humidity: 93%
Barometer: 30.38 inHg , 1028.8 hPa
Clouds: Clear
Visibility: 10 miles , 16 km
2018/04/24 10:00 KNEL 241000Z AUTO 00000KT 10SM CLR M01/M02 A3038 RMK AO2 SLP287 T10111022 PNO
 
KHPN - White Plains, New York, USA
Distance from station: NNE 42mi, 68km
Updated: Tue, 24-Apr-2018 5:56am EDT
Mist, Clear
Mist, Clear
 Wind from calm
Wind: Calm
Temperature: 37°F , 3°C
Dew Point: 36°F , 2°C
Humidity: 93%
Barometer: 30.39 inHg , 1029.1 hPa
Summary: Mist
Clouds: Clear
Visibility: 6 miles , 10 km
2018/04/24 09:56 KHPN 240956Z 00000KT 6SM BR CLR 03/02 A3039 RMK AO2 SLP295 T00280017 $
KMJX - Toms River, New Jersey, USA
Distance from station: SSW 42mi, 68km
Updated: Tue, 24-Apr-2018 5:56am EDT
Clear
Clear
 Wind from calm
Wind: Calm
Temperature: 27°F , -3°C
Dew Point: 25°F , -4°C
Humidity: 93%
Barometer: 30.39 inHg , 1029.1 hPa
Clouds: Clear
Visibility: 9 miles , 14 km
2018/04/24 09:56 KMJX 240956Z AUTO 00000KT 9SM CLR M03/M04 A3039 RMK AO2 SLP299 T10281039 FZRANO
 
KWRI - Wrightst/Mcguire, New Jersey, USA
Distance from station: SW 45mi, 73km
Updated: Tue, 24-Apr-2018 5:56am EDT
Clear
Clear
 Wind from E
Wind: E 3 mph , 6 km/h
Temperature: 36°F , 2°C
Dew Point: 34°F , 1°C
Humidity: 93%
Barometer: 30.36 inHg , 1028.1 hPa
Clouds: Clear
Visibility: 10 miles , 16 km
2018/04/24 09:56 KWRI 240956Z AUTO 08003KT 10SM CLR 02/01 A3036 RMK AO2 SLP281 T00180012
KTTN - Trenton, New Jersey, USA
Distance from station: WSW 46mi, 73km
Updated: Tue, 24-Apr-2018 5:53am EDT
Clear
Clear
 Wind from NNE
Wind: NNE 3 mph , 6 km/h
Temperature: 39°F , 4°C
Dew Point: 34°F , 1°C
Humidity: 81%
Barometer: 30.38 inHg , 1028.8 hPa
Clouds: Clear
Visibility: 10 miles , 16 km
2018/04/24 09:53 KTTN 240953Z 02003KT 10SM CLR 04/01 A3038 RMK AO2 SLP283 T00440006